This is the latest recevied weather packets stored in our database for station/object KK7ISX. If no packets are shown the sender has not sent any weather packets the latest 10 day(s).
| Time | Temp. | Humidity | Pressure | Rain* | Wind** | Luminosity | Snow |
|---|---|---|---|---|---|---|---|
| 1777649742 | 15.56° C | 47% | 1021.4 hPa | 0 mm | - | 339 W/m² | - |
| 1777649439 | 15.56° C | 48% | 1021.5 hPa | 0 mm | - | 324 W/m² | - |
| 1777649136 | 15.56° C | 49% | 1021.5 hPa | 0 mm | - | 308 W/m² | - |
| 1777648833 | 15° C | 49% | 1021.3 hPa | 0 mm | - | 292 W/m² | - |
| 1777648530 | 15° C | 48% | 1021.3 hPa | 0 mm | - | 279 W/m² | - |
| 1777648227 | 15° C | 49% | 1021.3 hPa | 0 mm | - | 184 W/m² | - |
| 1777647922 | 15° C | 50% | 1021.3 hPa | 0 mm | - | 243 W/m² | - |
| 1777647618 | 14.44° C | 50% | 1021.3 hPa | 0 mm | - | 54 W/m² | - |
| 1777647309 | 13.89° C | 50% | 1021.2 hPa | 0 mm | - | 96 W/m² | - |
| 1777647008 | 13.89° C | 51% | 1021.3 hPa | 0 mm | - | 48 W/m² | - |
| 1777646703 | 13.33° C | 52% | 1021.1 hPa | 0 mm | - | 56 W/m² | - |
| 1777646399 | 13.33° C | 52% | 1021 hPa | 0 mm | - | 45 W/m² | - |
| 1777646095 | 12.78° C | 53% | 1021.2 hPa | 0 mm | - | 167 W/m² | - |
| 1777645792 | 12.78° C | 53% | 1020.9 hPa | 0 mm | - | 118 W/m² | - |
| 1777645490 | 12.78° C | 55% | 1021 hPa | 0 mm | - | 108 W/m² | - |
| 1777645185 | 12.22° C | 55% | 1021.2 hPa | 0 mm | - | 45 W/m² | - |
| 1777644881 | 12.22° C | 55% | 1021 hPa | 0 mm | - | 125 W/m² | - |
| 1777644579 | 12.22° C | 55% | 1021 hPa | 0 mm | - | 43 W/m² | - |
| 1777644275 | 11.67° C | 56% | 1020.8 hPa | 0 mm | - | 43 W/m² | - |
| 1777643971 | 11.67° C | 57% | 1020.7 hPa | 0 mm | - | 72 W/m² | - |
| 1777643668 | 11.11° C | 58% | 1020.8 hPa | 0 mm | - | 74 W/m² | - |
| 1777643366 | 10.56° C | 59% | 1020.8 hPa | 0 mm | - | 38 W/m² | - |
| 1777643062 | 10° C | 62% | 1020.7 hPa | 0 mm | - | 69 W/m² | - |
| 1777642759 | 8.89° C | 67% | 1020.7 hPa | 0 mm | - | 58 W/m² | - |
| 1777642456 | 8.33° C | 70% | 1020.7 hPa | 0 mm | - | 53 W/m² | - |
* Rain latest hour (hover to see other rain measurements)
** Current wind speed in m/s (hover to see current wind gust speed)